createdAt,value
2023-03-10T00:00:14.810Z,472.00
2023-03-10T00:04:14.909Z,476.00
2023-03-10T00:08:14.832Z,475.00
2023-03-10T00:12:14.874Z,477.00
2023-03-10T00:16:14.851Z,483.00
2023-03-10T00:20:14.883Z,484.00
2023-03-10T00:24:14.940Z,482.00
2023-03-10T00:28:14.937Z,486.00
2023-03-10T00:32:15.032Z,487.00
2023-03-10T00:36:15.098Z,486.00
2023-03-10T00:40:15.153Z,490.00
2023-03-10T00:44:15.120Z,488.00
2023-03-10T00:48:15.115Z,489.00
2023-03-10T00:52:15.099Z,490.00
2023-03-10T00:56:15.124Z,489.00
2023-03-10T01:00:15.138Z,482.00
2023-03-10T01:04:15.198Z,482.00
2023-03-10T01:08:15.145Z,487.00
2023-03-10T01:12:15.168Z,486.00
2023-03-10T01:16:15.207Z,487.00
2023-03-10T01:20:15.275Z,485.00
2023-03-10T01:24:15.252Z,485.00
2023-03-10T01:28:15.251Z,485.00
2023-03-10T01:32:15.304Z,483.00
2023-03-10T01:36:15.316Z,482.00
2023-03-10T01:40:15.272Z,484.00
2023-03-10T01:44:15.301Z,489.00
2023-03-10T01:48:15.385Z,489.00
2023-03-10T01:52:15.444Z,486.00
2023-03-10T01:56:15.426Z,482.00
2023-03-10T02:00:15.418Z,482.00
2023-03-10T02:04:15.439Z,484.00
2023-03-10T02:08:15.439Z,477.00
2023-03-10T02:12:15.456Z,480.00
2023-03-10T02:16:15.537Z,483.00
2023-03-10T02:20:15.510Z,486.00
2023-03-10T02:24:15.550Z,485.00
2023-03-10T02:28:15.581Z,487.00
2023-03-10T02:32:15.597Z,485.00
2023-03-10T02:36:15.652Z,483.00
2023-03-10T02:40:15.644Z,487.00
2023-03-10T02:44:15.645Z,484.00
2023-03-10T02:48:15.648Z,483.00
2023-03-10T02:52:15.662Z,483.00
2023-03-10T02:56:15.688Z,487.00
2023-03-10T03:00:15.670Z,486.00
2023-03-10T03:04:15.769Z,490.00
2023-03-10T03:08:15.707Z,491.00
2023-03-10T03:12:15.745Z,487.00
2023-03-10T03:16:15.823Z,489.00
2023-03-10T03:20:15.738Z,489.00
2023-03-10T03:24:15.833Z,485.00
2023-03-10T03:28:15.760Z,484.00
2023-03-10T03:32:15.815Z,481.00
2023-03-10T03:36:15.831Z,484.00
2023-03-10T03:40:15.896Z,480.00
2023-03-10T03:44:15.919Z,482.00
2023-03-10T03:48:15.910Z,481.00
2023-03-10T03:52:15.965Z,484.00
2023-03-10T03:56:15.978Z,484.00
2023-03-10T04:00:16.024Z,487.00
2023-03-10T04:04:15.993Z,487.00
2023-03-10T04:08:16.018Z,485.00
2023-03-10T04:12:16.038Z,482.00
2023-03-10T04:16:16.129Z,478.00
2023-03-10T04:20:16.085Z,480.00
2023-03-10T04:24:16.120Z,482.00
2023-03-10T04:28:16.125Z,479.00
2023-03-10T04:32:16.156Z,479.00
2023-03-10T04:36:16.273Z,478.00
2023-03-10T04:40:16.176Z,481.00
2023-03-10T04:44:29.832Z,482.00
2023-03-10T04:48:17.172Z,476.00
2023-03-10T04:52:16.115Z,474.00
2023-03-10T04:56:16.105Z,478.00
2023-03-10T05:00:16.101Z,479.00
2023-03-10T05:04:16.066Z,476.00
2023-03-10T05:08:15.990Z,475.00
2023-03-10T05:12:15.925Z,476.00
2023-03-10T05:16:15.990Z,475.00
2023-03-10T05:20:15.929Z,476.00
2023-03-10T05:24:15.960Z,478.00
2023-03-10T05:28:16.059Z,479.00
2023-03-10T05:32:16.137Z,478.00
2023-03-10T05:36:16.182Z,479.00
2023-03-10T05:40:16.168Z,481.00
2023-03-10T05:44:16.198Z,476.00
2023-03-10T05:48:16.253Z,474.00
2023-03-10T05:52:16.264Z,476.00
2023-03-10T05:56:16.330Z,476.00
2023-03-10T06:00:16.488Z,477.00
2023-03-10T06:04:16.610Z,478.00
2023-03-10T06:08:16.534Z,476.00
2023-03-10T06:12:16.555Z,468.00
2023-03-10T06:16:16.700Z,467.00
2023-03-10T06:20:16.626Z,470.00
2023-03-10T06:24:16.703Z,470.00
2023-03-10T06:28:16.776Z,474.00
2023-03-10T06:32:16.812Z,524.00
2023-03-10T06:36:16.860Z,607.00
2023-03-10T06:40:16.828Z,718.00
2023-03-10T06:44:17.014Z,782.00
2023-03-10T06:48:17.187Z,888.00
2023-03-10T06:52:17.169Z,925.00
2023-03-10T06:56:17.174Z,968.00
2023-03-10T07:00:17.116Z,996.00
2023-03-10T07:04:17.127Z,1033.00
2023-03-10T07:08:17.029Z,1047.00
2023-03-10T07:12:16.999Z,1080.00
2023-03-10T07:16:16.947Z,1097.00
2023-03-10T07:20:16.921Z,1103.00
2023-03-10T07:24:16.932Z,1104.00
2023-03-10T07:28:16.839Z,1063.00
2023-03-10T07:32:17.101Z,1020.00
2023-03-10T07:36:16.821Z,1036.00
2023-03-10T07:40:16.733Z,1158.00
2023-03-10T07:44:17.006Z,1247.00
2023-03-10T07:48:16.912Z,1189.00
2023-03-10T07:52:16.913Z,1209.00
2023-03-10T07:56:16.948Z,1223.00
2023-03-10T08:00:17.131Z,1190.00
2023-03-10T08:04:17.393Z,1192.00
2023-03-10T08:08:17.097Z,1197.00
2023-03-10T08:12:17.141Z,1177.00
2023-03-10T08:16:17.225Z,1163.00
2023-03-10T08:20:17.215Z,1136.00
2023-03-10T08:24:17.626Z,1124.00
2023-03-10T08:28:17.460Z,910.00
2023-03-10T08:36:36.471Z,812.00
2023-03-10T08:40:36.266Z,892.00
2023-03-10T08:44:36.128Z,908.00
2023-03-10T08:48:36.433Z,921.00
2023-03-10T08:52:36.076Z,904.00
2023-03-10T08:56:36.462Z,891.00
2023-03-10T09:00:36.061Z,880.00
2023-03-10T09:04:36.083Z,882.00
2023-03-10T09:08:35.886Z,868.00
2023-03-10T09:12:38.986Z,859.00
2023-03-10T09:16:35.976Z,856.00
2023-03-10T09:20:35.935Z,850.00
2023-03-10T09:24:35.948Z,829.00
2023-03-10T09:28:35.704Z,908.00
2023-03-10T09:32:35.978Z,742.00
2023-03-10T09:36:35.662Z,843.00
2023-03-10T09:40:35.575Z,923.00
2023-03-10T09:44:35.962Z,998.00
2023-03-10T09:48:35.924Z,1056.00
2023-03-10T09:52:35.491Z,1105.00
2023-03-10T09:56:35.473Z,1143.00
2023-03-10T10:00:35.429Z,1226.00
2023-03-10T10:04:35.483Z,1210.00
2023-03-10T10:08:35.380Z,1217.00
2023-03-10T10:12:35.291Z,1223.00
2023-03-10T10:16:35.473Z,1226.00
2023-03-10T10:20:35.596Z,1245.00
2023-03-10T10:24:35.976Z,1238.00
2023-03-10T10:28:36.066Z,1226.00
2023-03-10T10:32:35.943Z,900.00
2023-03-10T10:36:35.998Z,857.00
2023-03-10T10:40:35.851Z,748.00
2023-03-10T10:44:35.815Z,787.00
2023-03-10T10:48:35.823Z,737.00
2023-03-10T10:52:35.786Z,771.00
2023-03-10T10:56:35.732Z,768.00
2023-03-10T11:00:35.658Z,800.00
2023-03-10T11:04:35.626Z,799.00
2023-03-10T11:08:36.015Z,839.00
2023-03-10T11:12:35.594Z,895.00
2023-03-10T11:16:36.022Z,973.00
2023-03-10T11:20:36.255Z,1003.00
2023-03-10T11:24:35.657Z,1013.00
2023-03-10T11:28:36.000Z,911.00
2023-03-10T11:32:35.895Z,743.00
2023-03-10T11:36:43.228Z,678.00
2023-03-10T11:40:36.878Z,644.00
2023-03-10T11:44:35.935Z,614.00
2023-03-10T11:48:35.994Z,610.00
2023-03-10T11:52:36.021Z,615.00
2023-03-10T11:56:36.009Z,609.00
2023-03-10T12:00:36.530Z,596.00
2023-03-10T12:04:36.503Z,599.00
2023-03-10T12:08:36.024Z,593.00
2023-03-10T12:12:36.498Z,593.00
2023-03-10T12:16:36.582Z,578.00
2023-03-10T12:20:36.528Z,585.00
2023-03-10T12:24:36.097Z,617.00
2023-03-10T12:28:36.578Z,620.00
2023-03-10T12:32:36.584Z,617.00
2023-03-10T12:36:36.297Z,601.00
2023-03-10T12:40:36.261Z,572.00
2023-03-10T12:44:36.274Z,547.00
2023-03-10T12:48:36.357Z,525.00
2023-03-10T12:52:36.483Z,508.00
2023-03-10T12:56:36.742Z,501.00
2023-03-10T13:00:36.729Z,494.00
2023-03-10T13:04:36.605Z,488.00
2023-03-10T13:08:36.585Z,483.00
2023-03-10T13:12:36.559Z,481.00
2023-03-10T13:16:36.632Z,476.00
2023-03-10T13:20:36.499Z,476.00
2023-03-10T13:24:36.467Z,479.00
2023-03-10T13:28:36.596Z,475.00
2023-03-10T13:32:36.378Z,478.00
2023-03-10T13:36:36.352Z,475.00
2023-03-10T13:40:36.348Z,478.00
2023-03-10T13:44:36.291Z,477.00
2023-03-10T13:48:36.256Z,490.00
2023-03-10T13:52:36.234Z,488.00
2023-03-10T13:56:36.185Z,496.00
2023-03-10T14:00:36.170Z,495.00
2023-03-10T14:04:36.165Z,488.00
2023-03-10T14:08:36.112Z,487.00
2023-03-10T14:12:36.055Z,492.00
2023-03-10T14:16:36.119Z,491.00
2023-03-10T14:20:36.072Z,490.00
2023-03-10T14:24:36.125Z,487.00
2023-03-10T14:28:36.350Z,484.00
2023-03-10T14:32:36.608Z,483.00
2023-03-10T14:36:37.119Z,481.00
2023-03-10T14:40:36.487Z,480.00
2023-03-10T14:44:36.458Z,480.00
2023-03-10T14:48:36.426Z,480.00
2023-03-10T14:52:36.372Z,480.00
2023-03-10T14:56:36.345Z,478.00
2023-03-10T15:00:36.325Z,475.00
2023-03-10T15:04:36.446Z,478.00
2023-03-10T15:08:36.596Z,476.00
2023-03-10T15:12:36.573Z,477.00
2023-03-10T15:16:36.550Z,477.00
2023-03-10T15:20:36.485Z,478.00
2023-03-10T15:24:36.452Z,474.00
2023-03-10T15:28:37.289Z,476.00
2023-03-10T15:32:36.440Z,477.00
2023-03-10T15:36:36.327Z,481.00
2023-03-10T15:40:36.305Z,479.00
2023-03-10T15:44:36.302Z,481.00
2023-03-10T15:48:36.329Z,481.00
2023-03-10T15:52:36.339Z,482.00
2023-03-10T15:56:36.272Z,482.00
2023-03-10T16:00:36.246Z,483.00
2023-03-10T16:04:36.228Z,483.00
2023-03-10T16:08:36.157Z,486.00
2023-03-10T16:12:36.107Z,484.00
2023-03-10T16:16:36.107Z,485.00
2023-03-10T16:20:36.028Z,486.00
2023-03-10T16:24:35.994Z,493.00
2023-03-10T16:28:35.978Z,494.00
2023-03-10T16:32:36.241Z,495.00
2023-03-10T16:36:36.294Z,488.00
2023-03-10T16:40:36.282Z,491.00
2023-03-10T16:44:36.277Z,489.00
2023-03-10T16:48:36.264Z,486.00
2023-03-10T16:52:36.202Z,482.00
2023-03-10T16:56:36.142Z,480.00
2023-03-10T17:00:36.092Z,476.00
2023-03-10T17:04:36.085Z,474.00
2023-03-10T17:08:36.064Z,473.00
2023-03-10T17:12:35.980Z,475.00
2023-03-10T17:16:35.984Z,473.00
2023-03-10T17:20:35.992Z,474.00
2023-03-10T17:24:37.201Z,475.00
2023-03-10T17:28:35.872Z,473.00
2023-03-10T17:32:35.862Z,472.00
2023-03-10T17:36:35.828Z,472.00
2023-03-10T17:40:35.730Z,472.00
2023-03-10T17:44:35.717Z,472.00
2023-03-10T17:48:35.681Z,469.00
2023-03-10T17:52:35.617Z,473.00
2023-03-10T17:56:35.598Z,475.00
2023-03-10T18:00:35.596Z,475.00
2023-03-10T18:04:35.538Z,469.00
2023-03-10T18:08:35.481Z,476.00
2023-03-10T18:12:35.452Z,475.00
2023-03-10T18:16:35.456Z,477.00
2023-03-10T18:20:35.529Z,478.00
2023-03-10T18:24:35.579Z,479.00
2023-03-10T18:28:35.690Z,478.00
2023-03-10T18:32:35.784Z,478.00
2023-03-10T18:36:35.929Z,479.00
2023-03-10T18:40:35.956Z,480.00
2023-03-10T18:44:36.055Z,483.00
2023-03-10T18:48:36.173Z,482.00
2023-03-10T18:52:36.221Z,485.00
2023-03-10T18:56:36.368Z,484.00
2023-03-10T19:00:36.469Z,486.00
2023-03-10T19:04:36.570Z,484.00
2023-03-10T19:08:37.223Z,486.00
2023-03-10T19:12:36.853Z,487.00
2023-03-10T19:16:36.977Z,484.00
2023-03-10T19:20:37.157Z,474.00
2023-03-10T19:24:37.294Z,475.00
2023-03-10T19:28:37.463Z,478.00
2023-03-10T19:32:37.738Z,480.00
2023-03-10T19:36:37.782Z,482.00
2023-03-10T19:40:37.936Z,482.00
2023-03-10T19:44:38.088Z,484.00
2023-03-10T19:48:38.287Z,481.00
2023-03-10T19:52:38.468Z,485.00
2023-03-10T19:56:38.638Z,487.00
2023-03-10T20:00:38.871Z,479.00
2023-03-10T20:04:39.031Z,481.00
2023-03-10T20:08:39.242Z,478.00
2023-03-10T20:12:39.438Z,476.00
2023-03-10T20:16:39.657Z,475.00
2023-03-10T20:20:39.851Z,475.00
2023-03-10T20:24:40.070Z,474.00
2023-03-10T20:28:40.244Z,474.00
2023-03-10T20:32:40.330Z,475.00
2023-03-10T20:36:40.178Z,472.00
2023-03-10T20:40:40.180Z,469.00
2023-03-10T20:44:40.142Z,472.00
2023-03-10T20:48:40.112Z,477.00
2023-03-10T20:52:40.086Z,478.00
2023-03-10T20:56:39.997Z,474.00
2023-03-10T21:00:39.970Z,475.00
2023-03-10T21:04:39.967Z,474.00
2023-03-10T21:08:40.023Z,473.00
2023-03-10T21:12:39.991Z,469.00
2023-03-10T21:16:39.994Z,469.00
2023-03-10T21:20:39.887Z,471.00
2023-03-10T21:24:39.877Z,478.00
2023-03-10T21:28:39.860Z,474.00
2023-03-10T21:32:39.810Z,476.00
2023-03-10T21:36:39.752Z,481.00
2023-03-10T21:40:39.736Z,479.00
2023-03-10T21:44:39.715Z,482.00
2023-03-10T21:48:39.711Z,482.00
2023-03-10T21:52:39.948Z,475.00
2023-03-10T21:56:40.155Z,471.00
2023-03-10T22:00:40.340Z,475.00
2023-03-10T22:04:40.573Z,478.00
2023-03-10T22:08:40.775Z,475.00
2023-03-10T22:12:40.965Z,468.00
2023-03-10T22:16:40.925Z,470.00
2023-03-10T22:20:40.920Z,471.00
2023-03-10T22:24:40.852Z,473.00
2023-03-10T22:28:40.849Z,475.00
2023-03-10T22:32:40.981Z,469.00
2023-03-10T22:36:40.728Z,469.00
2023-03-10T22:40:40.745Z,470.00
2023-03-10T22:44:40.676Z,471.00
2023-03-10T22:48:40.749Z,469.00
2023-03-10T22:52:40.578Z,469.00
2023-03-10T22:56:40.587Z,466.00
2023-03-10T23:00:40.559Z,465.00
2023-03-10T23:04:40.501Z,467.00
2023-03-10T23:08:40.459Z,465.00
2023-03-10T23:12:40.441Z,463.00
2023-03-10T23:16:40.479Z,465.00
2023-03-10T23:20:40.333Z,471.00
2023-03-10T23:24:40.356Z,468.00
2023-03-10T23:28:40.291Z,467.00
2023-03-10T23:32:40.269Z,462.00
2023-03-10T23:36:40.212Z,459.00
2023-03-10T23:40:40.274Z,456.00
2023-03-10T23:44:40.128Z,458.00
2023-03-10T23:48:40.099Z,463.00
2023-03-10T23:52:40.056Z,459.00
2023-03-10T23:56:40.283Z,454.00
